Gotska Sandon, Sweden

5:08 AM CEST on October 23, 2014 (GMT +0200)
Visby | Change Station
CLOSE
Current Station
Airport
Location: Visby Flygplats,
Elevation: 154 ft
Nearby Weather Stations

Elev 154 ft 57.66 °N, 18.35 °E | Updated 18 minutes ago

Mostly Cloudy
Mostly Cloudy
37 °F
Feels Like 31 °F
N
9
Wind Variable Wind from ESE

Today
High -- | Low -- °F
--% Chance of Precip.
Yesterday
High -- | Low -- °F
Precip. -- in
7:37 AM 5:16 PM
Waning Crescent, 1% visible
Pressure 30.21 in
Visibility 6.2 miles
Clouds Mostly Cloudy 2400 ft
Windchill 31 °F
Dew Point 30 °F
Humidity 75%
Rainfall 0.00 in
Snow Depth Not available.
UV 0 out of 12
Pollen Not available.
Air Quality Not available.
Flu Activity Not available.
METAR ESSV 230250Z AUTO 11008KT 9999 BKN024/// 03/M01 Q1023

More Conditions Fewer Conditions

Pressure 30.21 in
Visibility 6.2 miles
Clouds Mostly Cloudy 2400 ft
Windchill 31 °F
Dew Point 30 °F
Humidity 75%
Rainfall 0.00 in
Snow Depth Not available.
UV 0 out of 12
Pollen Not available.
Air Quality Not available.
Flu Activity Not available.
METAR ESSV 230250Z AUTO 11008KT 9999 BKN024/// 03/M01 Q1023

More Conditions Fewer Conditions

10-Day Weather Forecast

Almanac

Astronomy

Oct. 23, 2014 Rise Set
Actual Time 7:37 AM CEST 5:16 PM CEST
Civil Twilight 6:55 AM CEST 5:58 PM CEST
Nautical Twilight 6:09 AM CEST 6:44 PM CEST
Astronomical Twilight 5:23 AM CEST 7:30 PM CEST
Moon 6:51 AM CEST 5:10 PM CEST
Length of Visible Light 11h 02m
Length of Day
9h 39m
Tomorrow will be 4m 56s shorter.
Waning Crescent, 1% of the Moon is Illuminated
Oct 22
Waning Crescent
Oct 23
New
Oct 30
First Quarter
Nov 6
Full
Nov 14
Last Quarter

Yesterday's Extremes

Country Highs Country Lows

Community

WunderPhotos

Upload Photos

1,764,121 photos uploaded!

Nearby

Snow Depth

Not available.

Earthquake Activity

City Distance Mag. Time & Date
No recent earthquake activity has been reported nearby.
Minimum magnitude displayed is 2.5.

Coastal Water Temperatures

Place Temperature
No Stations Reporting

Nearby Weather Stations